Time;durP1;ratioP1;P1;durP2;ratioP2;P2;SDS_P1;SDS_P2;PMS_P1;PMS_P2;Temp;Humidity;BMP_temperature;BMP_pressure;BME280_temperature;BME280_humidity;BME280_pressure;Samples;Min_cycle;Max_cycle;Signal;HPM_P1;HPM_P2
2022/07/24 00:01:29;;;;;;;7.43;6.82;;;29.40;1.00;;;;;;4996398;28;20117;-48
2022/07/24 00:03:54;;;;;;;7.55;6.97;;;29.40;1.00;;;;;;5001190;28;20109;-48
2022/07/24 00:06:20;;;;;;;8.30;7.35;;;29.30;1.00;;;;;;5006530;28;20082;-49
2022/07/24 00:08:46;;;;;;;10.95;8.23;;;29.40;1.00;;;;;;5008672;28;20506;-51
2022/07/24 00:11:12;;;;;;;8.65;7.75;;;29.20;1.00;;;;;;5011016;28;20076;-48
2022/07/24 00:13:38;;;;;;;8.82;6.88;;;29.10;1.00;;;;;;5010372;28;20398;-49
2022/07/24 00:16:04;;;;;;;8.50;7.70;;;29.30;1.00;;;;;;5010714;28;20074;-48
2022/07/24 00:18:30;;;;;;;8.00;7.22;;;29.10;1.00;;;;;;5005556;28;20034;-49
2022/07/24 00:20:55;;;;;;;9.13;8.20;;;28.90;1.00;;;;;;5011160;28;20026;-50
2022/07/24 00:23:22;;;;;;;9.02;7.72;;;28.70;1.00;;;;;;5010144;28;20030;-50
2022/07/24 00:25:48;;;;;;;8.52;7.80;;;28.80;1.00;;;;;;5010984;28;20052;-46
2022/07/24 00:28:14;;;;;;;11.75;8.00;;;28.80;1.00;;;;;;5011085;28;20068;-48
2022/07/24 00:30:40;;;;;;;8.73;7.93;;;28.70;1.00;;;;;;5010994;28;20065;-48
2022/07/24 00:33:05;;;;;;;8.90;8.13;;;28.90;1.00;;;;;;5009905;28;20022;-49
2022/07/24 00:35:31;;;;;;;8.60;7.78;;;28.90;1.00;;;;;;5010864;28;20489;-48
2022/07/24 00:37:57;;;;;;;9.93;8.52;;;28.90;1.00;;;;;;5009881;28;20111;-49
2022/07/24 00:40:24;;;;;;;9.80;8.80;;;28.90;1.00;;;;;;5008181;28;20063;-47
2022/07/24 00:42:50;;;;;;;9.55;7.22;;;28.80;1.00;;;;;;5000010;28;20067;-47
2022/07/24 00:45:16;;;;;;;8.80;7.93;;;28.90;1.00;;;;;;5010542;28;20033;-49
2022/07/24 00:47:41;;;;;;;12.13;8.95;;;29.10;1.00;;;;;;5004346;28;20018;-48
2022/07/24 00:50:07;;;;;;;9.45;8.50;;;29.10;1.00;;;;;;5010717;28;20018;-49
2022/07/24 00:52:33;;;;;;;8.75;7.90;;;28.80;1.00;;;;;;5009491;28;20048;-50
2022/07/24 00:54:59;;;;;;;9.60;8.35;;;28.90;1.00;;;;;;5077319;28;20041;-48
2022/07/24 00:57:25;;;;;;;8.32;7.55;;;29.00;1.00;;;;;;5009395;28;20529;-48
2022/07/24 00:59:51;;;;;;;11.05;8.50;;;29.10;1.00;;;;;;5010570;28;20026;-48
2022/07/24 01:02:17;;;;;;;10.18;8.40;;;29.10;1.00;;;;;;5008176;28;20037;-47
2022/07/24 01:04:42;;;;;;;8.52;7.72;;;29.00;1.00;;;;;;5008720;28;20056;-51
2022/07/24 01:07:08;;;;;;;9.90;9.00;;;29.10;1.00;;;;;;5078012;28;20026;-51
2022/07/24 01:09:34;;;;;;;10.20;8.27;;;29.10;1.00;;;;;;5009965;28;20029;-48
2022/07/24 01:12:02;;;;;;;9.52;8.57;;;29.20;1.00;;;;;;5010118;28;20030;-49
2022/07/24 01:14:27;;;;;;;10.90;8.40;;;29.20;1.00;;;;;;5008999;28;20049;-51
2022/07/24 01:16:53;;;;;;;8.68;7.88;;;29.20;1.00;;;;;;5061769;28;20030;-52
2022/07/24 01:19:19;;;;;;;9.70;8.40;;;29.30;1.00;;;;;;5008093;28;20022;-53
2022/07/24 01:21:48;;;;;;;8.95;7.97;;;29.20;1.00;;;;;;5009431;28;20383;-47
2022/07/24 01:24:14;;;;;;;9.07;7.75;;;29.20;1.00;;;;;;5008531;28;20022;-51
2022/07/24 01:26:40;;;;;;;8.93;7.97;;;29.20;1.00;;;;;;5009481;28;20360;-50
2022/07/24 01:29:05;;;;;;;11.82;8.60;;;29.30;1.00;;;;;;5009411;28;20488;-46
2022/07/24 01:31:31;;;;;;;10.23;8.63;;;29.30;1.00;;;;;;5003483;28;20040;-48
2022/07/24 01:33:56;;;;;;;9.20;8.48;;;29.30;1.00;;;;;;5004803;28;20117;-47
2022/07/24 01:36:22;;;;;;;9.70;8.63;;;29.20;1.00;;;;;;5008910;28;20425;-49
2022/07/24 01:38:48;;;;;;;13.15;8.63;;;29.20;1.00;;;;;;4999136;28;20057;-52
2022/07/24 01:41:13;;;;;;;11.73;8.98;;;29.20;1.00;;;;;;5009066;28;20033;-49
2022/07/24 01:43:39;;;;;;;10.18;9.18;;;29.20;1.00;;;;;;5009431;28;20120;-49
2022/07/24 01:49:26;;;;;;;9.75;8.85;;;29.30;1.00;;;;;;4991851;28;20049;-51
2022/07/24 01:51:52;;;;;;;12.68;9.43;;;29.10;1.00;;;;;;5002712;28;20052;-51
2022/07/24 01:54:18;;;;;;;9.52;8.77;;;29.10;1.00;;;;;;4998066;28;20033;-49
2022/07/24 01:56:44;;;;;;;10.25;9.35;;;29.20;1.00;;;;;;5009543;28;20042;-50
2022/07/24 01:59:09;;;;;;;10.77;9.45;;;29.30;1.00;;;;;;5004929;28;20041;-49
2022/07/24 02:01:35;;;;;;;10.90;9.80;;;29.10;1.00;;;;;;5000511;28;20045;-50
2022/07/24 02:04:00;;;;;;;11.32;9.88;;;29.20;1.00;;;;;;5008534;28;20018;-47
2022/07/24 02:06:26;;;;;;;11.35;9.80;;;29.00;1.00;;;;;;5009680;28;20057;-48
2022/07/24 02:08:52;;;;;;;10.52;9.52;;;28.90;1.00;;;;;;5009685;28;20038;-48
2022/07/24 02:11:18;;;;;;;11.77;9.18;;;29.10;1.00;;;;;;5007663;28;20471;-49
2022/07/24 02:13:45;;;;;;;10.73;9.63;;;29.30;1.00;;;;;;5008330;28;20014;-50
2022/07/24 02:16:10;;;;;;;11.43;10.30;;;29.20;1.00;;;;;;5008932;28;20085;-48
2022/07/24 02:18:36;;;;;;;11.15;9.57;;;29.20;1.00;;;;;;4990478;28;20440;-48
2022/07/24 02:21:02;;;;;;;12.25;9.85;;;29.20;1.00;;;;;;4995112;28;20041;-47
2022/07/24 02:23:28;;;;;;;11.43;9.00;;;29.20;1.00;;;;;;5009150;28;20157;-47
2022/07/24 02:25:54;;;;;;;12.45;10.10;;;29.30;1.00;;;;;;5075818;28;20038;-48
2022/07/24 02:28:19;;;;;;;10.98;9.93;;;29.20;1.00;;;;;;5009047;28;20026;-47
2022/07/24 02:30:45;;;;;;;11.25;9.82;;;29.20;1.00;;;;;;5069267;28;20483;-48
2022/07/24 02:33:11;;;;;;;11.45;10.32;;;29.20;1.00;;;;;;5076789;28;20024;-48
2022/07/24 02:35:37;;;;;;;11.25;10.13;;;29.20;1.00;;;;;;5009344;28;20042;-47
2022/07/24 02:38:04;;;;;;;11.95;10.77;;;29.10;1.00;;;;;;5008902;28;20023;-47
2022/07/24 02:40:30;;;;;;;11.32;10.00;;;29.10;1.00;;;;;;5009312;28;20030;-47
2022/07/24 02:42:56;;;;;;;10.55;9.32;;;29.20;1.00;;;;;;5006782;28;20022;-48
2022/07/24 02:45:22;;;;;;;11.68;10.60;;;29.20;1.00;;;;;;5000024;28;20438;-48
2022/07/24 02:47:54;;;;;;;12.75;9.98;;;29.10;1.00;;;;;;5008893;28;20039;-49
2022/07/24 02:50:21;;;;;;;12.65;10.85;;;29.20;1.00;;;;;;5008077;28;20042;-50
2022/07/24 02:52:47;;;;;;;11.00;9.85;;;29.00;1.00;;;;;;5008987;28;20075;-54
2022/07/24 02:55:13;;;;;;;12.43;11.23;;;29.20;1.00;;;;;;5008105;28;20069;-49
2022/07/24 02:57:39;;;;;;;11.00;9.82;;;29.20;1.00;;;;;;5006959;28;20054;-49
2022/07/24 03:00:08;;;;;;;11.20;9.98;;;29.10;1.00;;;;;;5008109;28;20564;-52
2022/07/24 03:02:34;;;;;;;11.13;10.05;;;29.10;1.00;;;;;;5007695;28;20017;-49
2022/07/24 03:05:00;;;;;;;12.30;11.07;;;29.10;1.00;;;;;;5007721;28;20139;-47
2022/07/24 03:07:26;;;;;;;12.10;10.40;;;29.20;1.00;;;;;;5011916;28;20033;-47
2022/07/24 03:09:52;;;;;;;11.48;10.38;;;29.20;1.00;;;;;;5002217;28;20031;-47
2022/07/24 03:12:18;;;;;;;11.55;10.35;;;29.10;1.00;;;;;;5007599;28;20025;-47
2022/07/24 03:14:43;;;;;;;12.95;10.45;;;29.10;1.00;;;;;;5007637;28;20099;-48
2022/07/24 03:17:09;;;;;;;11.88;10.68;;;29.10;1.00;;;;;;5012052;28;20034;-49
2022/07/24 03:19:34;;;;;;;11.40;10.23;;;29.20;1.00;;;;;;5008434;28;20022;-48
2022/07/24 03:22:00;;;;;;;12.00;10.82;;;29.10;1.00;;;;;;5011725;28;20381;-48
2022/07/24 03:24:26;;;;;;;11.18;10.05;;;29.10;1.00;;;;;;5074296;28;20034;-48
2022/07/24 03:26:51;;;;;;;15.07;11.50;;;29.20;1.00;;;;;;5075410;28;20046;-47
2022/07/24 03:29:17;;;;;;;11.55;10.38;;;29.20;1.00;;;;;;5012210;28;20022;-48
2022/07/24 03:31:42;;;;;;;11.32;10.20;;;29.30;1.00;;;;;;5079747;28;20497;-49
2022/07/24 03:34:08;;;;;;;12.02;10.82;;;29.20;1.00;;;;;;5011973;28;20101;-50
2022/07/24 03:36:35;;;;;;;12.13;10.98;;;29.20;1.00;;;;;;5079418;28;20046;-49
2022/07/24 03:39:01;;;;;;;12.35;10.75;;;29.20;1.00;;;;;;5011951;28;20022;-51
2022/07/24 03:41:26;;;;;;;11.48;10.38;;;29.20;1.00;;;;;;5012037;28;20067;-48
2022/07/24 03:43:52;;;;;;;12.18;11.00;;;29.20;1.00;;;;;;5010194;28;20026;-49
2022/07/24 03:46:17;;;;;;;14.93;11.15;;;29.20;1.00;;;;;;5010998;28;20136;-48
2022/07/24 03:48:43;;;;;;;11.57;10.38;;;28.90;1.00;;;;;;5011556;28;20030;-48
2022/07/24 03:51:09;;;;;;;12.63;11.45;;;29.10;1.00;;;;;;5011880;28;20025;-48
2022/07/24 03:53:34;;;;;;;13.38;10.68;;;29.10;1.00;;;;;;5011390;28;20068;-48
2022/07/24 03:56:03;;;;;;;12.20;11.10;;;29.10;1.00;;;;;;5010477;28;20493;-47
2022/07/24 03:58:29;;;;;;;11.55;10.32;;;29.10;1.00;;;;;;5011415;28;20018;-48
2022/07/24 04:00:54;;;;;;;12.95;11.65;;;29.20;1.00;;;;;;5011770;28;20037;-48
2022/07/24 04:03:20;;;;;;;12.50;11.27;;;29.10;1.00;;;;;;5011523;28;20061;-49
2022/07/24 04:05:45;;;;;;;11.68;10.55;;;29.20;1.00;;;;;;5011411;28;20037;-50
2022/07/24 04:08:11;;;;;;;14.32;11.10;;;29.30;1.00;;;;;;5079182;28;20054;-48
2022/07/24 04:10:36;;;;;;;13.27;11.38;;;29.30;1.00;;;;;;5010347;28;20479;-48
2022/07/24 04:13:02;;;;;;;13.15;11.73;;;29.20;1.00;;;;;;5011581;28;20030;-47
2022/07/24 04:15:28;;;;;;;12.65;10.90;;;29.20;1.00;;;;;;5001494;28;20103;-48
2022/07/24 04:17:53;;;;;;;12.48;11.00;;;29.00;1.00;;;;;;5005963;28;20043;-47
2022/07/24 04:20:19;;;;;;;14.52;11.00;;;28.90;1.00;;;;;;5014359;28;20029;-49
2022/07/24 04:22:44;;;;;;;12.13;10.90;;;28.90;1.00;;;;;;5006489;28;20033;-48
2022/07/24 04:25:10;;;;;;;12.88;11.55;;;28.80;1.00;;;;;;5000587;28;20340;-49
2022/07/24 04:27:36;;;;;;;12.20;10.88;;;28.80;1.00;;;;;;4999617;28;20099;-47
2022/07/24 04:30:02;;;;;;;12.52;10.70;;;28.90;1.00;;;;;;5000934;28;20030;-49
2022/07/24 04:32:27;;;;;;;11.90;10.63;;;28.80;1.00;;;;;;5010758;28;20100;-50
2022/07/24 04:34:53;;;;;;;12.93;10.95;;;28.90;1.00;;;;;;5010023;28;20108;-48
2022/07/24 04:37:18;;;;;;;13.68;11.80;;;29.00;1.00;;;;;;5010950;28;20398;-52
2022/07/24 04:39:44;;;;;;;11.73;10.85;;;29.00;1.00;;;;;;5010714;28;20034;-50
2022/07/24 04:42:10;;;;;;;13.07;11.65;;;28.70;1.00;;;;;;5009136;28;20087;-50
2022/07/24 04:44:35;;;;;;;12.63;10.45;;;28.60;1.00;;;;;;5009076;28;20053;-51
2022/07/24 04:47:01;;;;;;;13.20;11.02;;;28.80;1.00;;;;;;5005062;28;20085;-53
2022/07/24 04:49:26;;;;;;;14.35;11.13;;;28.90;1.00;;;;;;5009073;28;20421;-51
2022/07/24 04:51:52;;;;;;;13.02;11.80;;;29.00;1.00;;;;;;4997876;28;20026;-50
2022/07/24 04:54:18;;;;;;;14.10;12.02;;;29.00;1.00;;;;;;5076996;28;20081;-49
2022/07/24 04:56:43;;;;;;;13.05;11.55;;;28.80;1.00;;;;;;5009821;28;20030;-50
2022/07/24 04:59:09;;;;;;;12.55;11.38;;;29.00;1.00;;;;;;5010536;28;20025;-50
2022/07/24 05:01:34;;;;;;;12.50;10.90;;;29.10;1.00;;;;;;5010459;28;20083;-48
2022/07/24 05:04:00;;;;;;;13.32;11.38;;;29.10;1.00;;;;;;5010362;28;20394;-49
2022/07/24 05:06:26;;;;;;;12.85;11.65;;;29.10;1.00;;;;;;5009401;28;20038;-48
2022/07/24 05:08:52;;;;;;;12.80;11.50;;;29.20;1.00;;;;;;5010466;28;20026;-48
2022/07/24 05:11:17;;;;;;;13.68;11.55;;;29.10;1.00;;;;;;5000970;28;20461;-50
2022/07/24 05:13:43;;;;;;;12.23;11.05;;;29.10;1.00;;;;;;5010120;28;20022;-51
2022/07/24 05:16:09;;;;;;;12.70;11.23;;;29.20;1.00;;;;;;5009984;28;20096;-51
2022/07/24 05:18:34;;;;;;;14.73;11.48;;;29.10;1.00;;;;;;4996531;28;20026;-51
2022/07/24 05:21:00;;;;;;;13.07;11.80;;;29.20;1.00;;;;;;5009300;28;20125;-52
2022/07/24 05:23:25;;;;;;;14.32;10.98;;;29.20;1.00;;;;;;5010011;28;20018;-51
2022/07/24 05:25:51;;;;;;;17.25;11.90;;;29.30;1.00;;;;;;5009775;28;20038;-50
2022/07/24 05:28:17;;;;;;;13.15;11.95;;;29.30;1.00;;;;;;5009782;28;20040;-50
2022/07/24 05:30:43;;;;;;;15.68;11.73;;;29.30;1.00;;;;;;5009054;28;20034;-50
2022/07/24 05:33:09;;;;;;;13.52;11.63;;;29.30;1.00;;;;;;5009805;28;20021;-48
2022/07/24 05:35:34;;;;;;;12.20;10.98;;;29.30;1.00;;;;;;4999843;28;20046;-52
2022/07/24 05:38:00;;;;;;;12.00;10.88;;;29.30;1.00;;;;;;5009550;28;20113;-48
2022/07/24 05:40:25;;;;;;;13.98;11.27;;;29.30;1.00;;;;;;5074093;28;20479;-47
2022/07/24 05:42:51;;;;;;;13.30;11.35;;;29.30;1.00;;;;;;5009655;28;20030;-51
2022/07/24 05:45:17;;;;;;;15.32;12.40;;;29.30;1.00;;;;;;5009848;28;20073;-48
2022/07/24 05:47:42;;;;;;;14.73;11.60;;;29.20;1.00;;;;;;5077568;28;20105;-49
2022/07/24 05:50:10;;;;;;;13.50;11.25;;;29.30;1.00;;;;;;5009960;28;20026;-49
2022/07/24 05:52:36;;;;;;;13.13;11.82;;;29.30;1.00;;;;;;4996031;28;20410;-52
2022/07/24 05:55:02;;;;;;;12.65;11.45;;;29.40;1.00;;;;;;5010108;28;20030;-48
2022/07/24 05:57:28;;;;;;;11.75;10.65;;;29.40;1.00;;;;;;4999425;28;20027;-48
2022/07/24 05:59:54;;;;;;;13.35;12.00;;;29.30;1.00;;;;;;5005895;28;20047;-49
2022/07/24 06:02:19;;;;;;;14.93;11.70;;;29.40;1.00;;;;;;5000577;28;20030;-49
2022/07/24 06:04:45;;;;;;;13.63;12.23;;;29.40;1.00;;;;;;5003811;28;20026;-52
2022/07/24 06:07:11;;;;;;;13.50;12.20;;;29.30;1.00;;;;;;5009418;28;20029;-47
2022/07/24 06:09:37;;;;;;;13.30;11.95;;;29.30;1.00;;;;;;5007748;28;20052;-48
2022/07/24 06:12:04;;;;;;;13.85;12.07;;;29.40;1.00;;;;;;5008342;28;20022;-54
2022/07/24 06:14:31;;;;;;;12.93;11.68;;;29.40;1.00;;;;;;5006402;28;20407;-50
2022/07/24 06:16:57;;;;;;;13.13;11.25;;;29.50;1.00;;;;;;5008567;28;20044;-49
2022/07/24 06:19:22;;;;;;;13.00;11.35;;;29.60;1.00;;;;;;5006232;28;20102;-52
2022/07/24 06:21:48;;;;;;;14.30;12.18;;;29.70;1.00;;;;;;5007937;28;20120;-49
2022/07/24 06:24:14;;;;;;;11.98;10.75;;;29.80;1.00;;;;;;5005612;28;20119;-49
2022/07/24 06:26:40;;;;;;;12.52;11.32;;;29.80;1.00;;;;;;5000365;28;20030;-48
2022/07/24 06:29:05;;;;;;;12.73;11.43;;;29.60;1.00;;;;;;5004779;28;20455;-47
2022/07/24 06:31:31;;;;;;;12.50;11.40;;;29.80;1.00;;;;;;5006679;28;20049;-48
2022/07/24 06:33:57;;;;;;;12.88;11.55;;;29.80;1.00;;;;;;4997937;28;20062;-48
2022/07/24 06:36:23;;;;;;;13.68;11.32;;;29.80;1.00;;;;;;4999368;28;20057;-48
2022/07/24 06:38:48;;;;;;;13.23;11.25;;;29.80;1.00;;;;;;5001922;28;20034;-48
2022/07/24 06:41:14;;;;;;;9.43;8.55;;;29.80;1.00;;;;;;5008794;28;20060;-48
2022/07/24 06:43:40;;;;;;;11.32;10.18;;;29.80;1.00;;;;;;5000811;28;20031;-47
2022/07/24 06:46:06;;;;;;;10.93;9.85;;;29.90;1.00;;;;;;5010821;28;20037;-50
2022/07/24 06:48:31;;;;;;;14.07;10.85;;;29.90;1.00;;;;;;5012402;28;20030;-50
2022/07/24 06:50:57;;;;;;;16.08;11.88;;;30.00;1.00;;;;;;5011442;28;20525;-47
2022/07/24 06:53:23;;;;;;;14.15;10.80;;;30.00;1.00;;;;;;5080479;28;20030;-48
2022/07/24 06:55:48;;;;;;;12.15;10.90;;;30.00;1.00;;;;;;5011505;28;20042;-48
2022/07/24 06:58:14;;;;;;;12.88;10.60;;;29.90;1.00;;;;;;5012232;28;20338;-47
2022/07/24 07:00:40;;;;;;;11.40;10.30;;;29.90;1.00;;;;;;5012306;28;20038;-52
2022/07/24 07:03:06;;;;;;;12.73;10.90;;;30.00;1.00;;;;;;5012141;28;20014;-53
2022/07/24 07:05:31;;;;;;;11.68;10.20;;;29.90;1.00;;;;;;5011530;28;20038;-51
2022/07/24 07:07:57;;;;;;;12.00;10.70;;;29.90;1.00;;;;;;5011845;28;20105;-50
2022/07/24 07:10:23;;;;;;;13.15;11.18;;;30.10;1.00;;;;;;5011137;28;20037;-51
2022/07/24 07:12:49;;;;;;;11.50;10.32;;;30.00;1.00;;;;;;5012099;28;20018;-51
2022/07/24 07:15:15;;;;;;;11.80;10.00;;;30.10;1.00;;;;;;5012067;28;20042;-47
2022/07/24 07:17:41;;;;;;;11.50;9.93;;;30.20;1.00;;;;;;5011984;28;20029;-54
2022/07/24 07:20:09;;;;;;;11.25;9.25;;;30.20;1.00;;;;;;5011327;28;20018;-54
2022/07/24 07:22:35;;;;;;;11.18;9.98;;;30.20;1.00;;;;;;4999670;28;20026;-51
2022/07/24 07:25:01;;;;;;;12.98;10.40;;;30.20;1.00;;;;;;5079752;28;20036;-53
2022/07/24 07:27:27;;;;;;;12.32;10.43;;;30.20;1.00;;;;;;5011972;28;20014;-51
2022/07/24 07:29:52;;;;;;;13.00;9.57;;;30.30;1.00;;;;;;5011430;28;20109;-50
2022/07/24 07:32:18;;;;;;;11.57;9.95;;;30.30;1.00;;;;;;5011293;28;20022;-47
2022/07/24 07:34:43;;;;;;;10.10;9.10;;;30.40;1.00;;;;;;5011787;28;20433;-47
2022/07/24 07:37:09;;;;;;;10.82;9.48;;;30.30;1.00;;;;;;5011859;28;20053;-51
2022/07/24 07:39:35;;;;;;;11.68;10.48;;;30.30;1.00;;;;;;5008831;28;20022;-47
2022/07/24 07:42:00;;;;;;;12.65;10.88;;;30.30;1.00;;;;;;5005945;28;20034;-53
2022/07/24 07:44:26;;;;;;;9.68;8.88;;;30.30;1.00;;;;;;5002835;28;20029;-50
2022/07/24 07:46:52;;;;;;;12.18;9.07;;;30.40;1.00;;;;;;5010723;28;20391;-48
2022/07/24 07:49:18;;;;;;;12.85;9.35;;;30.40;1.00;;;;;;5010810;28;20022;-47
2022/07/24 07:51:47;;;;;;;13.25;10.10;;;30.50;1.00;;;;;;5010498;28;20416;-48
2022/07/24 07:54:14;;;;;;;9.30;8.35;;;30.50;1.00;;;;;;5011394;28;20063;-51
2022/07/24 07:56:40;;;;;;;9.77;8.70;;;30.60;1.00;;;;;;5011001;28;20034;-50
2022/07/24 07:59:05;;;;;;;9.63;8.77;;;30.60;1.00;;;;;;5011588;28;20046;-51
2022/07/24 08:01:31;;;;;;;9.20;8.32;;;30.60;1.00;;;;;;5010448;28;20121;-48
2022/07/24 08:03:56;;;;;;;9.13;8.32;;;30.90;1.00;;;;;;5011183;28;20022;-49
2022/07/24 08:06:22;;;;;;;10.82;8.80;;;31.00;1.00;;;;;;5000265;28;20542;-54
2022/07/24 08:08:48;;;;;;;10.85;9.77;;;31.00;1.00;;;;;;5073204;28;20444;-49
2022/07/24 08:11:13;;;;;;;9.90;9.02;;;30.80;1.00;;;;;;5013375;28;20026;-49
2022/07/24 08:13:39;;;;;;;10.70;8.95;;;30.80;1.00;;;;;;5011096;28;20022;-48
2022/07/24 08:16:05;;;;;;;10.52;9.00;;;31.00;1.00;;;;;;5013487;28;20052;-48
2022/07/24 08:18:30;;;;;;;10.00;8.88;;;31.30;1.00;;;;;;5010559;28;20045;-48
2022/07/24 08:20:56;;;;;;;10.00;9.10;;;31.40;1.00;;;;;;4999419;28;20472;-49
2022/07/24 08:23:21;;;;;;;9.00;8.10;;;31.40;1.00;;;;;;5078633;28;20112;-50
2022/07/24 08:25:47;;;;;;;10.20;9.20;;;31.50;1.00;;;;;;5010046;28;20026;-48
2022/07/24 08:28:13;;;;;;;9.57;8.60;;;31.40;1.00;;;;;;5010787;28;20037;-52
2022/07/24 08:30:38;;;;;;;10.57;8.95;;;31.60;1.00;;;;;;5010579;28;20109;-52
2022/07/24 08:33:04;;;;;;;9.90;9.00;;;31.70;1.00;;;;;;5010603;28;20167;-48
2022/07/24 08:35:30;;;;;;;9.63;8.65;;;31.90;1.00;;;;;;5010145;28;20094;-49
2022/07/24 08:37:55;;;;;;;13.40;9.68;;;31.90;1.00;;;;;;5008326;28;20106;-50
2022/07/24 08:40:22;;;;;;;9.63;8.65;;;31.70;1.00;;;;;;5077985;28;20113;-49
2022/07/24 08:42:47;;;;;;;11.55;9.52;;;31.60;1.00;;;;;;5077970;28;20052;-56
2022/07/24 08:45:13;;;;;;;10.90;9.23;;;31.60;1.00;;;;;;5002219;28;20464;-54
2022/07/24 08:47:41;;;;;;;11.10;9.98;;;31.70;1.00;;;;;;5051347;28;20061;-56
2022/07/24 08:50:07;;;;;;;11.73;9.45;;;31.40;1.00;;;;;;5009809;28;20018;-55
2022/07/24 08:52:35;;;;;;;11.27;10.18;;;31.50;1.00;;;;;;5010686;28;20030;-54
2022/07/24 08:55:01;;;;;;;10.13;9.10;;;31.60;1.00;;;;;;5007392;28;20410;-53
2022/07/24 08:57:27;;;;;;;11.32;10.07;;;32.00;1.00;;;;;;5007834;28;20057;-53
2022/07/24 08:59:53;;;;;;;10.63;8.93;;;31.70;1.00;;;;;;5009890;28;20060;-59
2022/07/24 09:02:18;;;;;;;9.93;9.13;;;31.70;1.00;;;;;;5008556;28;20022;-60
2022/07/24 09:04:46;;;;;;;10.88;9.85;;;31.80;1.00;;;;;;5010616;28;20037;-59
2022/07/24 09:07:15;;;;;;;9.88;8.90;;;31.90;1.00;;;;;;5008818;28;20030;-59
2022/07/24 09:09:42;;;;;;;9.80;9.07;;;32.00;1.00;;;;;;5010006;28;20633;-59
2022/07/24 09:12:16;;;;;;;10.82;9.82;;;32.10;1.00;;;;;;4998077;28;20038;-59
2022/07/24 09:14:45;;;;;;;10.85;9.75;;;32.10;1.00;;;;;;5009545;28;20060;-59
2022/07/24 09:17:16;;;;;;;13.57;11.55;;;32.00;1.00;;;;;;5062563;28;20042;-59
2022/07/24 09:19:49;;;;;;;11.88;10.77;;;32.10;1.00;;;;;;5009415;28;20109;-58
2022/07/24 09:22:39;;;;;;;12.02;9.98;;;32.10;1.00;;;;;;5009281;28;20030;-59
2022/07/24 09:25:11;;;;;;;11.32;10.20;;;32.30;1.00;;;;;;5009588;28;20057;-59
2022/07/24 09:27:47;;;;;;;12.05;10.38;;;32.20;1.00;;;;;;5060580;28;20109;-59
2022/07/24 09:30:21;;;;;;;11.43;10.43;;;32.20;1.00;;;;;;4995118;28;20111;-57
2022/07/24 09:32:55;;;;;;;11.95;10.90;;;32.30;1.00;;;;;;5001963;28;20053;-58
2022/07/24 09:35:40;;;;;;;11.13;10.13;;;32.50;1.00;;;;;;4993576;28;20036;-58
2022/07/24 09:38:08;;;;;;;11.65;10.45;;;32.60;1.00;;;;;;4997727;28;20038;-58
2022/07/24 09:40:36;;;;;;;11.10;10.20;;;32.70;1.00;;;;;;5008944;28;20053;-57
2022/07/24 09:43:23;;;;;;;11.38;10.32;;;33.10;1.00;;;;;;4992667;28;20065;-58
2022/07/24 09:46:08;;;;;;;11.45;10.48;;;33.00;1.00;;;;;;5005200;28;20475;-58
2022/07/24 09:48:54;;;;;;;11.50;10.40;;;32.70;1.00;;;;;;5002271;28;20029;-56
2022/07/24 09:51:20;;;;;;;11.73;10.60;;;33.00;1.00;;;;;;4998004;28;20018;-57
2022/07/24 09:53:51;;;;;;;13.88;10.27;;;32.90;1.00;;;;;;4996510;28;20030;-59
2022/07/24 09:56:18;;;;;;;11.90;9.98;;;32.80;1.00;;;;;;5003713;28;20109;-58
2022/07/24 09:58:53;;;;;;;10.95;9.85;;;32.70;1.00;;;;;;4996114;28;20026;-59
2022/07/24 10:01:23;;;;;;;10.75;9.25;;;32.60;1.00;;;;;;5072044;28;20387;-59
2022/07/24 10:03:50;;;;;;;11.18;10.15;;;33.10;1.00;;;;;;5005168;28;20022;-57
2022/07/24 10:06:22;;;;;;;11.80;10.45;;;33.10;1.00;;;;;;5009388;28;20130;-59
2022/07/24 10:08:50;;;;;;;9.95;9.00;;;33.10;1.00;;;;;;5076723;28;20377;-58
2022/07/24 10:11:16;;;;;;;10.63;9.48;;;33.50;1.00;;;;;;5009166;28;20487;-59
2022/07/24 10:13:43;;;;;;;11.27;10.18;;;33.50;1.00;;;;;;4999680;28;20033;-58
2022/07/24 10:16:12;;;;;;;11.73;10.52;;;33.60;1.00;;;;;;5002470;28;20061;-57
2022/07/24 10:19:00;;;;;;;11.90;10.75;;;33.40;1.00;;;;;;5008820;28;20026;-57
2022/07/24 10:21:38;;;;;;;11.70;10.70;;;33.40;1.00;;;;;;5009247;28;20376;-58
2022/07/24 10:24:03;;;;;;;11.38;10.43;;;33.20;1.00;;;;;;5008927;28;20104;-58
2022/07/24 10:26:51;;;;;;;11.48;10.40;;;33.40;1.00;;;;;;5008940;28;20026;-56
2022/07/24 10:29:18;;;;;;;10.48;9.68;;;33.20;1.00;;;;;;5007978;28;20026;-56
2022/07/24 10:31:46;;;;;;;10.82;9.82;;;33.70;1.00;;;;;;5005376;28;20528;-56
2022/07/24 10:34:50;;;;;;;12.98;10.32;;;33.60;1.00;;;;;;5008549;28;20026;-58
2022/07/24 10:37:33;;;;;;;10.30;9.48;;;33.50;1.00;;;;;;5000708;28;20030;-58
2022/07/24 10:40:02;;;;;;;11.93;10.00;;;34.00;1.00;;;;;;5008474;28;20029;-56
2022/07/24 10:42:27;;;;;;;10.48;9.40;;;34.00;1.00;;;;;;5007847;28;20553;-58
2022/07/24 10:45:17;;;;;;;10.52;9.80;;;34.40;1.00;;;;;;5008382;28;20037;-57
2022/07/24 10:47:43;;;;;;;11.90;10.57;;;33.90;1.00;;;;;;4994611;28;20049;-59
2022/07/24 10:50:08;;;;;;;12.13;11.00;;;33.80;1.00;;;;;;4988837;28;20121;-57
2022/07/24 10:52:36;;;;;;;11.70;10.70;;;34.30;1.00;;;;;;5007954;28;20117;-58
2022/07/24 10:55:20;;;;;;;12.85;11.70;;;34.60;1.00;;;;;;5008085;28;20151;-57
2022/07/24 10:57:48;;;;;;;11.73;10.57;;;35.40;1.00;;;;;;5002830;28;20041;-56
2022/07/24 11:00:26;;;;;;;13.35;10.85;;;35.60;1.00;;;;;;5072505;28;20071;-56
2022/07/24 11:03:05;;;;;;;12.57;10.85;;;35.60;1.00;;;;;;5003809;28;20359;-53
2022/07/24 11:05:39;;;;;;;11.77;10.68;;;35.00;1.00;;;;;;4992207;28;20041;-57
2022/07/24 11:08:17;;;;;;;11.95;10.93;;;34.90;1.00;;;;;;5008402;28;20022;-56
2022/07/24 11:11:05;;;;;;;13.23;11.93;;;35.10;1.00;;;;;;5003823;28;20049;-57
2022/07/24 11:13:33;;;;;;;11.88;10.73;;;34.70;1.00;;;;;;4999202;28;20194;-57
2022/07/24 11:16:21;;;;;;;11.75;10.48;;;35.10;1.00;;;;;;5007682;28;20495;-57
2022/07/24 11:18:49;;;;;;;10.98;10.15;;;35.60;1.00;;;;;;5000047;28;20483;-58
2022/07/24 11:21:30;;;;;;;12.32;11.23;;;35.40;1.00;;;;;;5008359;28;20028;-59
2022/07/24 11:24:16;;;;;;;12.73;11.52;;;35.80;1.00;;;;;;5008533;28;20026;-58
2022/07/24 11:26:50;;;;;;;12.27;11.18;;;36.00;1.00;;;;;;5004313;28;20069;-58
2022/07/24 11:29:25;;;;;;;13.18;11.98;;;35.50;1.00;;;;;;5005816;28;20116;-57
2022/07/24 11:31:55;;;;;;;12.27;11.23;;;35.30;1.00;;;;;;5010414;28;20026;-57
2022/07/24 11:34:22;;;;;;;11.82;10.80;;;35.70;1.00;;;;;;5011533;28;20022;-57
2022/07/24 11:36:50;;;;;;;12.05;10.90;;;36.20;1.00;;;;;;5011341;28;20038;-58
2022/07/24 11:39:18;;;;;;;12.50;11.18;;;36.80;1.00;;;;;;5079340;28;20106;-58
2022/07/24 11:41:55;;;;;;;13.77;11.20;;;36.90;1.00;;;;;;5007025;28;20034;-59
2022/07/24 11:44:30;;;;;;;12.45;10.88;;;37.40;1.00;;;;;;5011466;28;20100;-59
2022/07/24 11:46:58;;;;;;;11.23;10.30;;;37.30;1.00;;;;;;5011048;28;20030;-59
2022/07/24 11:49:25;;;;;;;11.98;10.88;;;38.00;1.00;;;;;;5011295;28;20014;-58
2022/07/24 11:51:53;;;;;;;13.20;11.88;;;39.00;1.00;;;;;;5011134;28;20083;-59
2022/07/24 11:54:25;;;;;;;14.20;12.43;;;40.00;1.00;;;;;;5011185;28;20018;-59
2022/07/24 11:56:55;;;;;;;13.63;12.43;;;41.00;1.00;;;;;;5010245;28;20125;-57
2022/07/24 11:59:31;;;;;;;12.90;11.70;;;41.50;1.00;;;;;;5010929;28;20042;-56
2022/07/24 12:02:10;;;;;;;13.10;11.77;;;41.80;1.00;;;;;;5010865;28;20036;-57
2022/07/24 12:04:38;;;;;;;13.80;12.40;;;41.60;1.00;;;;;;5010412;28;20118;-58
2022/07/24 12:07:14;;;;;;;12.52;11.50;;;42.50;1.00;;;;;;5011025;28;20111;-58
2022/07/24 12:09:47;;;;;;;13.25;12.02;;;43.60;1.00;;;;;;5010704;28;20061;-58
2022/07/24 12:12:25;;;;;;;13.48;11.52;;;42.80;1.00;;;;;;5007307;28;20056;-59
2022/07/24 12:15:04;;;;;;;12.48;11.48;;;42.50;1.00;;;;;;5010745;28;20142;-59
2022/07/24 12:17:32;;;;;;;12.85;11.60;;;41.40;1.00;;;;;;5009654;28;20084;-59
2022/07/24 12:19:59;;;;;;;12.82;11.60;;;41.90;1.00;;;;;;5006185;28;20487;-58
2022/07/24 12:22:27;;;;;;;13.25;12.18;;;43.30;1.00;;;;;;5010998;28;20049;-58
2022/07/24 12:24:54;;;;;;;12.75;11.75;;;44.70;1.00;;;;;;5010610;28;20022;-58
2022/07/24 12:27:47;;;;;;;13.15;12.15;;;44.80;1.00;;;;;;5005320;28;20053;-58
2022/07/24 12:30:20;;;;;;;14.90;13.57;;;45.90;1.00;;;;;;4997508;28;20390;-58
2022/07/24 12:33:12;;;;;;;13.63;12.63;;;45.80;1.00;;;;;;5010157;28;20285;-58
2022/07/24 12:36:00;;;;;;;13.75;12.45;;;46.50;1.00;;;;;;4999468;28;20484;-58
2022/07/24 12:38:27;;;;;;;14.02;12.95;;;46.40;1.00;;;;;;5009551;28;20030;-58
2022/07/24 12:41:11;;;;;;;14.48;13.32;;;46.20;1.00;;;;;;4996101;28;20083;-59
2022/07/24 12:43:51;;;;;;;17.50;16.20;;;45.60;1.00;;;;;;4995335;28;20022;-57
2022/07/24 12:46:20;;;;;;;15.18;13.90;;;44.30;1.00;;;;;;5066766;28;20134;-56
2022/07/24 12:49:00;;;;;;;14.55;13.27;;;44.20;1.00;;;;;;5001172;28;20034;-55
2022/07/24 12:51:42;;;;;;;14.90;13.68;;;43.20;1.00;;;;;;5009673;28;20094;-56